Aeroporto :
LOGIN :

Iscrizione | Disclaimer

   EN    FR    IT 

 










Sommario :    VFR   VFR Marginale   IFR   IFR Intensivo   IFR Molto Intensivo
Visibilità : 
Base nubi : 
>= 8 km
>= 3000ft
5 / 8 km
1000 / 3000 ft
1500m / 5 km
500 / 1000 ft
800 / 1500m
200 / 500 ft
< 800m
< 200 ft
Simboli :   Temporali  Nebbia  Neve Forte  Precipitazioni Forti  Vento > 20 kt
SIGMETs :   Varie  Temporali  Ghiacco  Turbolenza  Onda orograficha  Ceneri Vulcaniche







- Altitudine del aeroporto : 295 ft
- Codice IATA : ORN


DAOO - Es senia - Oran

ULTIMO METAR :
  • 221500Z 28016KT 9999 FEW020TCU SCT020 BKN233 14/05 Q1015

METARs OBSOLETI :
  • 221430Z 28016KT 9999 FEW020TCU SCT020 BKN230 14/05 Q1015
  • 221400Z 27018KT 9999 FEW020TCU SCT020 BKN233 15/04 Q1015
  • 221330Z 26017KT 9999 FEW020TCU SCT020 BKN233 15/05 Q1016
  • 221300Z 25018KT 9999 FEW020TCU SCT020 BKN233 15/06 Q1016
  • 221230Z 24018KT 9999 SCT020 BKN230 15/08 Q1017

TAF TAF DAOO
Valido dal 22 a 12 ore il 23 a 12 ore UTC


221100Z 2212/2312 26018KT 9999 FEW020 SCT100
BECMG 2215/2218 SCT026 BKN100
BECMG 2220/2223 SCT020 BKN026 SCT030TCU
TEMPO 2221/2308 28030KT 5000 RA
PROB40
TEMPO 2300/2306 2000 -TSSHRA SCT026CB
Nessun NOTAM noto per questo aeroporto.



MetMap, La meteo Aeronautica in un colpo d'occhio ! - Copyright ORBIFLY Dicembre 2007 - Disclaimer

ORBIFLY MET'MAP TEAM :

Programmazione e sviluppo : Alexandra Zaïnal
Concezione e sviluppo : Baudouin d'Aumeries
Co-Programmazione e sviluppo : Marc-Olivier Méhu
Supporto tecnico e logistico : Manuel Goepfert
Aiuto per la traduzione : Arnaldo La Scala

Contatto : metmap@orbifly.com




FONTI E CREDITI :

   NOAA